sensor_id;sensor_type;location;lat;lon;timestamp;P1;durP1;ratioP1;P2;durP2;ratioP2
75435;SDS011;64014;53.432;14.534;2023-05-07T00:00:16;8.15;;;5.25;;
75435;SDS011;64014;53.432;14.534;2023-05-07T00:02:44;9.52;;;6.13;;
75435;SDS011;64014;53.432;14.534;2023-05-07T00:05:10;9.02;;;6.15;;
75435;SDS011;64014;53.432;14.534;2023-05-07T00:07:37;9.45;;;6.53;;
75435;SDS011;64014;53.432;14.534;2023-05-07T00:10:03;8.57;;;5.28;;
75435;SDS011;64014;53.432;14.534;2023-05-07T00:12:31;9.13;;;5.78;;
75435;SDS011;64014;53.432;14.534;2023-05-07T00:15:01;9.63;;;6.68;;
75435;SDS011;64014;53.432;14.534;2023-05-07T00:17:28;9.43;;;6.47;;
75435;SDS011;64014;53.432;14.534;2023-05-07T00:19:54;9.80;;;5.88;;
75435;SDS011;64014;53.432;14.534;2023-05-07T00:22:20;8.50;;;5.40;;
75435;SDS011;64014;53.432;14.534;2023-05-07T00:24:47;9.82;;;6.82;;
75435;SDS011;64014;53.432;14.534;2023-05-07T00:27:13;9.73;;;6.75;;
75435;SDS011;64014;53.432;14.534;2023-05-07T00:29:39;9.40;;;6.70;;
75435;SDS011;64014;53.432;14.534;2023-05-07T00:32:05;10.07;;;6.13;;
75435;SDS011;64014;53.432;14.534;2023-05-07T00:34:32;10.27;;;6.10;;
75435;SDS011;64014;53.432;14.534;2023-05-07T00:36:58;9.18;;;6.00;;
75435;SDS011;64014;53.432;14.534;2023-05-07T00:39:24;12.15;;;6.85;;
75435;SDS011;64014;53.432;14.534;2023-05-07T00:41:50;10.02;;;6.55;;
75435;SDS011;64014;53.432;14.534;2023-05-07T00:44:16;9.15;;;5.90;;
75435;SDS011;64014;53.432;14.534;2023-05-07T00:46:43;8.05;;;5.85;;
75435;SDS011;64014;53.432;14.534;2023-05-07T00:49:14;11.70;;;6.93;;
75435;SDS011;64014;53.432;14.534;2023-05-07T00:51:41;8.40;;;6.10;;
75435;SDS011;64014;53.432;14.534;2023-05-07T00:54:07;7.88;;;5.75;;
75435;SDS011;64014;53.432;14.534;2023-05-07T00:56:34;9.73;;;6.65;;
75435;SDS011;64014;53.432;14.534;2023-05-07T00:59:01;8.57;;;4.63;;
75435;SDS011;64014;53.432;14.534;2023-05-07T01:01:27;8.02;;;5.93;;
75435;SDS011;64014;53.432;14.534;2023-05-07T01:03:54;9.20;;;6.70;;
75435;SDS011;64014;53.432;14.534;2023-05-07T01:06:20;11.27;;;6.05;;
75435;SDS011;64014;53.432;14.534;2023-05-07T01:08:47;9.65;;;5.80;;
75435;SDS011;64014;53.432;14.534;2023-05-07T01:11:15;10.50;;;6.55;;
75435;SDS011;64014;53.432;14.534;2023-05-07T01:13:45;8.35;;;5.80;;
75435;SDS011;64014;53.432;14.534;2023-05-07T01:16:11;11.27;;;6.03;;
75435;SDS011;64014;53.432;14.534;2023-05-07T01:18:37;9.48;;;6.65;;
75435;SDS011;64014;53.432;14.534;2023-05-07T01:21:04;9.20;;;5.55;;
75435;SDS011;64014;53.432;14.534;2023-05-07T01:23:30;9.45;;;6.22;;
75435;SDS011;64014;53.432;14.534;2023-05-07T01:25:56;8.90;;;5.60;;
75435;SDS011;64014;53.432;14.534;2023-05-07T01:28:23;9.50;;;6.82;;
75435;SDS011;64014;53.432;14.534;2023-05-07T01:30:50;11.32;;;5.78;;
75435;SDS011;64014;53.432;14.534;2023-05-07T01:33:18;8.82;;;5.93;;
75435;SDS011;64014;53.432;14.534;2023-05-07T01:35:47;9.95;;;6.53;;
75435;SDS011;64014;53.432;14.534;2023-05-07T01:38:15;7.95;;;6.03;;
75435;SDS011;64014;53.432;14.534;2023-05-07T01:40:41;10.00;;;6.88;;
75435;SDS011;64014;53.432;14.534;2023-05-07T01:43:08;9.75;;;5.75;;
75435;SDS011;64014;53.432;14.534;2023-05-07T01:45:35;9.23;;;6.15;;
75435;SDS011;64014;53.432;14.534;2023-05-07T01:48:01;8.00;;;6.13;;
75435;SDS011;64014;53.432;14.534;2023-05-07T01:50:27;10.65;;;6.78;;
75435;SDS011;64014;53.432;14.534;2023-05-07T01:52:54;10.32;;;6.45;;
75435;SDS011;64014;53.432;14.534;2023-05-07T01:55:21;11.13;;;6.57;;
75435;SDS011;64014;53.432;14.534;2023-05-07T01:57:47;9.73;;;6.57;;
75435;SDS011;64014;53.432;14.534;2023-05-07T02:00:13;11.98;;;6.32;;
75435;SDS011;64014;53.432;14.534;2023-05-07T02:02:40;11.50;;;7.78;;
75435;SDS011;64014;53.432;14.534;2023-05-07T02:05:06;11.85;;;7.47;;
75435;SDS011;64014;53.432;14.534;2023-05-07T02:07:32;9.88;;;6.28;;
75435;SDS011;64014;53.432;14.534;2023-05-07T02:09:58;11.45;;;6.85;;
75435;SDS011;64014;53.432;14.534;2023-05-07T02:12:25;11.10;;;5.00;;
75435;SDS011;64014;53.432;14.534;2023-05-07T02:14:51;10.93;;;6.70;;
75435;SDS011;64014;53.432;14.534;2023-05-07T02:17:17;9.10;;;6.00;;
75435;SDS011;64014;53.432;14.534;2023-05-07T02:19:44;9.77;;;6.68;;
75435;SDS011;64014;53.432;14.534;2023-05-07T02:22:10;9.60;;;5.97;;
75435;SDS011;64014;53.432;14.534;2023-05-07T02:24:36;11.77;;;6.38;;
75435;SDS011;64014;53.432;14.534;2023-05-07T02:27:02;11.00;;;7.05;;
75435;SDS011;64014;53.432;14.534;2023-05-07T02:29:29;10.85;;;7.35;;
75435;SDS011;64014;53.432;14.534;2023-05-07T02:31:55;10.82;;;6.32;;
75435;SDS011;64014;53.432;14.534;2023-05-07T02:34:21;10.80;;;6.45;;
75435;SDS011;64014;53.432;14.534;2023-05-07T02:36:47;10.38;;;7.35;;
75435;SDS011;64014;53.432;14.534;2023-05-07T02:39:13;11.38;;;7.32;;
75435;SDS011;64014;53.432;14.534;2023-05-07T02:41:40;8.90;;;6.45;;
75435;SDS011;64014;53.432;14.534;2023-05-07T02:44:06;9.82;;;6.97;;
75435;SDS011;64014;53.432;14.534;2023-05-07T02:46:32;10.80;;;6.72;;
75435;SDS011;64014;53.432;14.534;2023-05-07T02:48:59;10.95;;;6.85;;
75435;SDS011;64014;53.432;14.534;2023-05-07T02:51:25;10.30;;;6.63;;
75435;SDS011;64014;53.432;14.534;2023-05-07T02:53:52;9.95;;;7.25;;
75435;SDS011;64014;53.432;14.534;2023-05-07T02:56:18;11.23;;;6.70;;
75435;SDS011;64014;53.432;14.534;2023-05-07T02:58:44;10.55;;;6.63;;
75435;SDS011;64014;53.432;14.534;2023-05-07T03:01:11;9.05;;;6.88;;
75435;SDS011;64014;53.432;14.534;2023-05-07T03:03:38;9.32;;;5.85;;
75435;SDS011;64014;53.432;14.534;2023-05-07T03:06:05;10.77;;;6.35;;
75435;SDS011;64014;53.432;14.534;2023-05-07T03:08:32;8.98;;;6.68;;
75435;SDS011;64014;53.432;14.534;2023-05-07T03:10:58;10.07;;;6.43;;
75435;SDS011;64014;53.432;14.534;2023-05-07T03:13:24;10.48;;;7.30;;
75435;SDS011;64014;53.432;14.534;2023-05-07T03:15:50;11.52;;;6.43;;
75435;SDS011;64014;53.432;14.534;2023-05-07T03:18:16;9.43;;;7.15;;
75435;SDS011;64014;53.432;14.534;2023-05-07T03:20:43;9.60;;;7.20;;
75435;SDS011;64014;53.432;14.534;2023-05-07T03:23:09;12.25;;;6.93;;
75435;SDS011;64014;53.432;14.534;2023-05-07T03:25:35;15.43;;;9.02;;
75435;SDS011;64014;53.432;14.534;2023-05-07T03:28:01;12.55;;;7.93;;
75435;SDS011;64014;53.432;14.534;2023-05-07T03:30:27;10.35;;;7.68;;
75435;SDS011;64014;53.432;14.534;2023-05-07T03:32:54;19.20;;;11.48;;
75435;SDS011;64014;53.432;14.534;2023-05-07T03:35:20;14.80;;;10.15;;
75435;SDS011;64014;53.432;14.534;2023-05-07T03:37:46;11.65;;;6.38;;
75435;SDS011;64014;53.432;14.534;2023-05-07T03:40:12;10.32;;;7.03;;
75435;SDS011;64014;53.432;14.534;2023-05-07T03:42:38;10.68;;;6.80;;
75435;SDS011;64014;53.432;14.534;2023-05-07T03:45:05;10.07;;;6.60;;
75435;SDS011;64014;53.432;14.534;2023-05-07T03:47:31;9.70;;;6.28;;
75435;SDS011;64014;53.432;14.534;2023-05-07T03:49:57;8.65;;;7.25;;
75435;SDS011;64014;53.432;14.534;2023-05-07T03:52:24;11.55;;;6.13;;
75435;SDS011;64014;53.432;14.534;2023-05-07T03:54:51;10.98;;;6.72;;
75435;SDS011;64014;53.432;14.534;2023-05-07T03:57:17;9.50;;;6.93;;
75435;SDS011;64014;53.432;14.534;2023-05-07T03:59:43;8.55;;;6.03;;
75435;SDS011;64014;53.432;14.534;2023-05-07T04:02:10;10.95;;;6.75;;
75435;SDS011;64014;53.432;14.534;2023-05-07T04:04:36;10.48;;;7.32;;
75435;SDS011;64014;53.432;14.534;2023-05-07T04:07:02;10.25;;;6.38;;
75435;SDS011;64014;53.432;14.534;2023-05-07T04:09:28;14.70;;;10.75;;
75435;SDS011;64014;53.432;14.534;2023-05-07T04:11:54;15.50;;;7.55;;
75435;SDS011;64014;53.432;14.534;2023-05-07T04:14:21;8.93;;;5.80;;
75435;SDS011;64014;53.432;14.534;2023-05-07T04:16:47;8.40;;;5.95;;
75435;SDS011;64014;53.432;14.534;2023-05-07T04:19:13;9.68;;;6.00;;
75435;SDS011;64014;53.432;14.534;2023-05-07T04:21:39;7.80;;;6.10;;
75435;SDS011;64014;53.432;14.534;2023-05-07T04:24:05;10.20;;;6.95;;
75435;SDS011;64014;53.432;14.534;2023-05-07T04:26:32;10.18;;;6.72;;
75435;SDS011;64014;53.432;14.534;2023-05-07T04:28:58;10.05;;;6.43;;
75435;SDS011;64014;53.432;14.534;2023-05-07T04:31:25;9.68;;;6.03;;
75435;SDS011;64014;53.432;14.534;2023-05-07T04:33:51;10.13;;;6.90;;
75435;SDS011;64014;53.432;14.534;2023-05-07T04:36:17;8.27;;;6.30;;
75435;SDS011;64014;53.432;14.534;2023-05-07T04:38:43;10.27;;;6.60;;
75435;SDS011;64014;53.432;14.534;2023-05-07T04:41:12;36.63;;;22.98;;
75435;SDS011;64014;53.432;14.534;2023-05-07T04:43:38;17.35;;;11.40;;
75435;SDS011;64014;53.432;14.534;2023-05-07T04:46:05;15.10;;;11.30;;
75435;SDS011;64014;53.432;14.534;2023-05-07T04:48:31;12.68;;;6.75;;
75435;SDS011;64014;53.432;14.534;2023-05-07T04:50:57;9.63;;;6.97;;
75435;SDS011;64014;53.432;14.534;2023-05-07T04:53:23;12.48;;;6.07;;
75435;SDS011;64014;53.432;14.534;2023-05-07T04:55:54;7.57;;;4.05;;
75435;SDS011;64014;53.432;14.534;2023-05-07T04:58:21;8.50;;;5.97;;
75435;SDS011;64014;53.432;14.534;2023-05-07T05:00:47;10.07;;;6.15;;
75435;SDS011;64014;53.432;14.534;2023-05-07T05:03:14;8.18;;;6.03;;
75435;SDS011;64014;53.432;14.534;2023-05-07T05:05:40;9.32;;;6.18;;
75435;SDS011;64014;53.432;14.534;2023-05-07T05:08:06;9.07;;;5.45;;
75435;SDS011;64014;53.432;14.534;2023-05-07T05:10:33;9.50;;;6.07;;
75435;SDS011;64014;53.432;14.534;2023-05-07T05:12:59;9.32;;;6.05;;
75435;SDS011;64014;53.432;14.534;2023-05-07T05:15:25;8.27;;;5.85;;
75435;SDS011;64014;53.432;14.534;2023-05-07T05:17:52;10.57;;;6.60;;
75435;SDS011;64014;53.432;14.534;2023-05-07T05:20:18;7.97;;;4.85;;
75435;SDS011;64014;53.432;14.534;2023-05-07T05:22:44;10.40;;;6.68;;
75435;SDS011;64014;53.432;14.534;2023-05-07T05:25:10;9.75;;;4.80;;
75435;SDS011;64014;53.432;14.534;2023-05-07T05:27:36;9.98;;;6.60;;
75435;SDS011;64014;53.432;14.534;2023-05-07T05:30:03;9.23;;;6.15;;
75435;SDS011;64014;53.432;14.534;2023-05-07T05:32:30;12.50;;;5.97;;
75435;SDS011;64014;53.432;14.534;2023-05-07T05:34:56;8.25;;;6.20;;
75435;SDS011;64014;53.432;14.534;2023-05-07T05:37:22;10.25;;;6.45;;
75435;SDS011;64014;53.432;14.534;2023-05-07T05:39:49;9.45;;;6.00;;
75435;SDS011;64014;53.432;14.534;2023-05-07T05:42:15;9.80;;;7.10;;
75435;SDS011;64014;53.432;14.534;2023-05-07T05:44:41;14.18;;;6.47;;
75435;SDS011;64014;53.432;14.534;2023-05-07T05:47:07;10.23;;;6.15;;
75435;SDS011;64014;53.432;14.534;2023-05-07T05:49:34;8.40;;;6.50;;
75435;SDS011;64014;53.432;14.534;2023-05-07T05:52:00;9.90;;;6.88;;
75435;SDS011;64014;53.432;14.534;2023-05-07T05:54:26;8.85;;;6.28;;
75435;SDS011;64014;53.432;14.534;2023-05-07T05:56:52;8.68;;;6.38;;
75435;SDS011;64014;53.432;14.534;2023-05-07T05:59:18;9.52;;;6.38;;
75435;SDS011;64014;53.432;14.534;2023-05-07T06:01:45;9.95;;;6.50;;
75435;SDS011;64014;53.432;14.534;2023-05-07T06:04:11;8.70;;;5.80;;
75435;SDS011;64014;53.432;14.534;2023-05-07T06:06:37;9.05;;;6.07;;
75435;SDS011;64014;53.432;14.534;2023-05-07T06:09:03;8.85;;;5.40;;
75435;SDS011;64014;53.432;14.534;2023-05-07T06:11:31;9.10;;;5.78;;
75435;SDS011;64014;53.432;14.534;2023-05-07T06:13:57;9.13;;;6.07;;
75435;SDS011;64014;53.432;14.534;2023-05-07T06:16:24;9.07;;;6.80;;
75435;SDS011;64014;53.432;14.534;2023-05-07T06:18:50;8.15;;;5.57;;
75435;SDS011;64014;53.432;14.534;2023-05-07T06:21:16;9.95;;;6.25;;
75435;SDS011;64014;53.432;14.534;2023-05-07T06:23:42;9.52;;;6.15;;
75435;SDS011;64014;53.432;14.534;2023-05-07T06:26:09;9.32;;;6.35;;
75435;SDS011;64014;53.432;14.534;2023-05-07T06:28:35;7.07;;;5.63;;
75435;SDS011;64014;53.432;14.534;2023-05-07T06:31:15;10.18;;;5.75;;
75435;SDS011;64014;53.432;14.534;2023-05-07T06:33:41;7.97;;;6.07;;
75435;SDS011;64014;53.432;14.534;2023-05-07T06:36:07;7.78;;;5.43;;
75435;SDS011;64014;53.432;14.534;2023-05-07T06:38:34;8.80;;;6.15;;
75435;SDS011;64014;53.432;14.534;2023-05-07T06:41:00;6.90;;;5.28;;
75435;SDS011;64014;53.432;14.534;2023-05-07T06:43:26;7.95;;;5.13;;
75435;SDS011;64014;53.432;14.534;2023-05-07T06:45:52;7.35;;;5.35;;
75435;SDS011;64014;53.432;14.534;2023-05-07T06:48:18;7.88;;;4.88;;
75435;SDS011;64014;53.432;14.534;2023-05-07T06:50:45;8.38;;;5.63;;
75435;SDS011;64014;53.432;14.534;2023-05-07T06:53:11;7.32;;;5.78;;
75435;SDS011;64014;53.432;14.534;2023-05-07T06:55:37;9.02;;;5.32;;
75435;SDS011;64014;53.432;14.534;2023-05-07T06:58:03;8.93;;;4.55;;
75435;SDS011;64014;53.432;14.534;2023-05-07T07:00:30;6.40;;;4.38;;
75435;SDS011;64014;53.432;14.534;2023-05-07T07:02:57;8.40;;;4.60;;
75435;SDS011;64014;53.432;14.534;2023-05-07T07:05:24;5.93;;;3.97;;
75435;SDS011;64014;53.432;14.534;2023-05-07T07:07:50;7.03;;;5.32;;
75435;SDS011;64014;53.432;14.534;2023-05-07T07:10:20;9.10;;;5.60;;
75435;SDS011;64014;53.432;14.534;2023-05-07T07:12:46;9.00;;;5.63;;
75435;SDS011;64014;53.432;14.534;2023-05-07T07:15:13;6.45;;;3.92;;
75435;SDS011;64014;53.432;14.534;2023-05-07T07:17:39;6.40;;;4.00;;
75435;SDS011;64014;53.432;14.534;2023-05-07T07:20:06;6.53;;;3.80;;
75435;SDS011;64014;53.432;14.534;2023-05-07T07:22:32;7.40;;;4.57;;
75435;SDS011;64014;53.432;14.534;2023-05-07T07:24:58;6.97;;;5.20;;
75435;SDS011;64014;53.432;14.534;2023-05-07T07:27:25;6.60;;;4.72;;
75435;SDS011;64014;53.432;14.534;2023-05-07T07:29:51;8.95;;;4.22;;
75435;SDS011;64014;53.432;14.534;2023-05-07T07:32:17;7.53;;;4.80;;
75435;SDS011;64014;53.432;14.534;2023-05-07T07:34:43;5.65;;;4.28;;
75435;SDS011;64014;53.432;14.534;2023-05-07T07:37:10;6.57;;;4.13;;
75435;SDS011;64014;53.432;14.534;2023-05-07T07:39:36;7.63;;;5.68;;
75435;SDS011;64014;53.432;14.534;2023-05-07T07:42:06;7.30;;;4.72;;
75435;SDS011;64014;53.432;14.534;2023-05-07T07:44:32;6.60;;;4.18;;
75435;SDS011;64014;53.432;14.534;2023-05-07T07:46:58;7.55;;;4.78;;
75435;SDS011;64014;53.432;14.534;2023-05-07T07:49:24;6.15;;;4.00;;
75435;SDS011;64014;53.432;14.534;2023-05-07T07:51:50;5.03;;;3.70;;
75435;SDS011;64014;53.432;14.534;2023-05-07T07:54:17;5.97;;;4.22;;
75435;SDS011;64014;53.432;14.534;2023-05-07T07:56:43;5.05;;;3.80;;
75435;SDS011;64014;53.432;14.534;2023-05-07T07:59:09;6.25;;;3.90;;
75435;SDS011;64014;53.432;14.534;2023-05-07T08:01:36;5.20;;;3.50;;
75435;SDS011;64014;53.432;14.534;2023-05-07T08:04:02;9.07;;;3.53;;
75435;SDS011;64014;53.432;14.534;2023-05-07T08:06:28;5.97;;;4.05;;
75435;SDS011;64014;53.432;14.534;2023-05-07T08:08:55;5.57;;;3.97;;
75435;SDS011;64014;53.432;14.534;2023-05-07T08:11:21;6.10;;;3.88;;
75435;SDS011;64014;53.432;14.534;2023-05-07T08:13:47;5.90;;;4.22;;
75435;SDS011;64014;53.432;14.534;2023-05-07T08:16:13;5.80;;;4.20;;
75435;SDS011;64014;53.432;14.534;2023-05-07T08:18:40;7.13;;;3.72;;
75435;SDS011;64014;53.432;14.534;2023-05-07T08:21:06;6.53;;;3.72;;
75435;SDS011;64014;53.432;14.534;2023-05-07T08:23:32;8.57;;;2.53;;
75435;SDS011;64014;53.432;14.534;2023-05-07T08:25:59;7.35;;;2.95;;
75435;SDS011;64014;53.432;14.534;2023-05-07T08:28:25;5.40;;;3.60;;
75435;SDS011;64014;53.432;14.534;2023-05-07T08:30:52;5.97;;;2.65;;
75435;SDS011;64014;53.432;14.534;2023-05-07T08:33:18;6.05;;;4.40;;
75435;SDS011;64014;53.432;14.534;2023-05-07T08:35:45;9.68;;;5.15;;
75435;SDS011;64014;53.432;14.534;2023-05-07T08:38:11;5.72;;;3.38;;
75435;SDS011;64014;53.432;14.534;2023-05-07T08:40:38;7.00;;;4.47;;
75435;SDS011;64014;53.432;14.534;2023-05-07T08:43:06;6.68;;;4.15;;
75435;SDS011;64014;53.432;14.534;2023-05-07T08:45:35;5.53;;;3.47;;
75435;SDS011;64014;53.432;14.534;2023-05-07T08:48:04;11.45;;;9.07;;
75435;SDS011;64014;53.432;14.534;2023-05-07T08:50:31;6.60;;;4.45;;
75435;SDS011;64014;53.432;14.534;2023-05-07T08:52:57;6.13;;;4.38;;
75435;SDS011;64014;53.432;14.534;2023-05-07T08:55:25;8.18;;;4.88;;
75435;SDS011;64014;53.432;14.534;2023-05-07T08:57:51;6.00;;;3.50;;
75435;SDS011;64014;53.432;14.534;2023-05-07T09:00:18;5.05;;;3.65;;
75435;SDS011;64014;53.432;14.534;2023-05-07T09:02:44;5.93;;;3.85;;
75435;SDS011;64014;53.432;14.534;2023-05-07T09:05:10;6.00;;;3.53;;
75435;SDS011;64014;53.432;14.534;2023-05-07T09:07:36;6.05;;;3.72;;
75435;SDS011;64014;53.432;14.534;2023-05-07T09:10:03;5.53;;;2.40;;
75435;SDS011;64014;53.432;14.534;2023-05-07T09:12:29;5.32;;;3.78;;
75435;SDS011;64014;53.432;14.534;2023-05-07T09:14:55;6.05;;;3.78;;
75435;SDS011;64014;53.432;14.534;2023-05-07T09:17:22;5.97;;;3.15;;
75435;SDS011;64014;53.432;14.534;2023-05-07T09:19:48;5.95;;;4.28;;
75435;SDS011;64014;53.432;14.534;2023-05-07T09:22:14;6.95;;;3.90;;
75435;SDS011;64014;53.432;14.534;2023-05-07T09:24:40;4.68;;;2.72;;
75435;SDS011;64014;53.432;14.534;2023-05-07T09:27:12;5.50;;;2.85;;
75435;SDS011;64014;53.432;14.534;2023-05-07T09:29:38;6.07;;;4.70;;
75435;SDS011;64014;53.432;14.534;2023-05-07T09:32:05;5.28;;;3.10;;
75435;SDS011;64014;53.432;14.534;2023-05-07T09:34:31;5.82;;;3.72;;
75435;SDS011;64014;53.432;14.534;2023-05-07T09:37:04;4.75;;;3.47;;
75435;SDS011;64014;53.432;14.534;2023-05-07T09:39:40;6.40;;;3.95;;
75435;SDS011;64014;53.432;14.534;2023-05-07T09:42:07;4.88;;;2.35;;
75435;SDS011;64014;53.432;14.534;2023-05-07T09:44:33;5.28;;;3.33;;
75435;SDS011;64014;53.432;14.534;2023-05-07T09:47:00;6.75;;;3.28;;
75435;SDS011;64014;53.432;14.534;2023-05-07T09:49:28;4.75;;;3.90;;
75435;SDS011;64014;53.432;14.534;2023-05-07T09:51:55;5.30;;;3.58;;
75435;SDS011;64014;53.432;14.534;2023-05-07T09:54:22;5.07;;;3.30;;
75435;SDS011;64014;53.432;14.534;2023-05-07T09:56:48;4.22;;;1.50;;
75435;SDS011;64014;53.432;14.534;2023-05-07T09:59:15;5.78;;;3.83;;
75435;SDS011;64014;53.432;14.534;2023-05-07T10:01:42;5.63;;;2.70;;
75435;SDS011;64014;53.432;14.534;2023-05-07T10:04:09;5.72;;;3.60;;
75435;SDS011;64014;53.432;14.534;2023-05-07T10:06:36;4.72;;;3.40;;
75435;SDS011;64014;53.432;14.534;2023-05-07T10:09:03;4.43;;;1.95;;
75435;SDS011;64014;53.432;14.534;2023-05-07T10:11:32;4.70;;;2.88;;
75435;SDS011;64014;53.432;14.534;2023-05-07T10:13:59;5.97;;;3.60;;
75435;SDS011;64014;53.432;14.534;2023-05-07T10:16:27;7.05;;;3.30;;
75435;SDS011;64014;53.432;14.534;2023-05-07T10:18:54;5.10;;;1.90;;
75435;SDS011;64014;53.432;14.534;2023-05-07T10:21:20;4.32;;;3.50;;
75435;SDS011;64014;53.432;14.534;2023-05-07T10:23:51;4.13;;;1.70;;
75435;SDS011;64014;53.432;14.534;2023-05-07T10:26:19;5.03;;;3.60;;
75435;SDS011;64014;53.432;14.534;2023-05-07T10:28:47;4.30;;;3.90;;
75435;SDS011;64014;53.432;14.534;2023-05-07T10:31:18;6.75;;;4.72;;
75435;SDS011;64014;53.432;14.534;2023-05-07T10:33:47;5.45;;;4.07;;
75435;SDS011;64014;53.432;14.534;2023-05-07T10:36:15;6.55;;;2.40;;
75435;SDS011;64014;53.432;14.534;2023-05-07T10:38:41;4.68;;;3.25;;
75435;SDS011;64014;53.432;14.534;2023-05-07T10:41:08;4.35;;;2.15;;
75435;SDS011;64014;53.432;14.534;2023-05-07T10:43:44;7.40;;;4.30;;
75435;SDS011;64014;53.432;14.534;2023-05-07T10:46:11;6.40;;;2.00;;
75435;SDS011;64014;53.432;14.534;2023-05-07T10:51:22;5.15;;;2.28;;
75435;SDS011;64014;53.432;14.534;2023-05-07T10:53:49;4.22;;;3.53;;
75435;SDS011;64014;53.432;14.534;2023-05-07T11:04:24;5.90;;;4.50;;
75435;SDS011;64014;53.432;14.534;2023-05-07T11:17:29;3.22;;;1.73;;
75435;SDS011;64014;53.432;14.534;2023-05-07T11:19:59;6.28;;;2.67;;
75435;SDS011;64014;53.432;14.534;2023-05-07T11:25:00;13.02;;;8.23;;
75435;SDS011;64014;53.432;14.534;2023-05-07T11:27:27;4.50;;;3.95;;
75435;SDS011;64014;53.432;14.534;2023-05-07T11:29:53;5.80;;;3.65;;
75435;SDS011;64014;53.432;14.534;2023-05-07T11:32:37;5.10;;;3.30;;
75435;SDS011;64014;53.432;14.534;2023-05-07T11:35:04;5.15;;;2.92;;
75435;SDS011;64014;53.432;14.534;2023-05-07T11:37:30;5.20;;;3.50;;
75435;SDS011;64014;53.432;14.534;2023-05-07T11:42:49;5.72;;;3.97;;
75435;SDS011;64014;53.432;14.534;2023-05-07T11:45:19;4.50;;;3.50;;
75435;SDS011;64014;53.432;14.534;2023-05-07T11:47:50;5.75;;;1.80;;
75435;SDS011;64014;53.432;14.534;2023-05-07T11:50:16;4.15;;;3.08;;
75435;SDS011;64014;53.432;14.534;2023-05-07T11:52:49;5.07;;;4.10;;
75435;SDS011;64014;53.432;14.534;2023-05-07T11:57:42;5.40;;;3.42;;
75435;SDS011;64014;53.432;14.534;2023-05-07T12:00:09;5.88;;;2.95;;
75435;SDS011;64014;53.432;14.534;2023-05-07T12:02:35;3.53;;;2.58;;
75435;SDS011;64014;53.432;14.534;2023-05-07T12:05:01;4.20;;;3.03;;
75435;SDS011;64014;53.432;14.534;2023-05-07T12:07:28;2.95;;;1.23;;
75435;SDS011;64014;53.432;14.534;2023-05-07T12:09:54;5.00;;;1.48;;
75435;SDS011;64014;53.432;14.534;2023-05-07T12:12:20;4.25;;;1.83;;
75435;SDS011;64014;53.432;14.534;2023-05-07T12:14:47;3.88;;;1.38;;
75435;SDS011;64014;53.432;14.534;2023-05-07T12:17:14;3.80;;;1.38;;
75435;SDS011;64014;53.432;14.534;2023-05-07T12:19:41;4.15;;;1.30;;
75435;SDS011;64014;53.432;14.534;2023-05-07T12:22:07;4.90;;;1.65;;
75435;SDS011;64014;53.432;14.534;2023-05-07T12:24:50;4.53;;;1.20;;
75435;SDS011;64014;53.432;14.534;2023-05-07T12:27:22;3.70;;;1.27;;
75435;SDS011;64014;53.432;14.534;2023-05-07T12:29:48;3.22;;;1.08;;
75435;SDS011;64014;53.432;14.534;2023-05-07T12:32:15;5.63;;;2.22;;
75435;SDS011;64014;53.432;14.534;2023-05-07T12:34:42;3.67;;;1.30;;
75435;SDS011;64014;53.432;14.534;2023-05-07T12:37:08;4.53;;;1.52;;
75435;SDS011;64014;53.432;14.534;2023-05-07T12:39:35;5.40;;;2.78;;
75435;SDS011;64014;53.432;14.534;2023-05-07T12:42:01;4.32;;;1.60;;
75435;SDS011;64014;53.432;14.534;2023-05-07T12:44:31;4.22;;;1.80;;
75435;SDS011;64014;53.432;14.534;2023-05-07T12:46:58;3.95;;;1.60;;
75435;SDS011;64014;53.432;14.534;2023-05-07T12:49:25;4.15;;;1.35;;
75435;SDS011;64014;53.432;14.534;2023-05-07T12:51:51;14.52;;;10.70;;
75435;SDS011;64014;53.432;14.534;2023-05-07T12:54:30;8.38;;;4.63;;
75435;SDS011;64014;53.432;14.534;2023-05-07T12:57:00;6.28;;;2.80;;
75435;SDS011;64014;53.432;14.534;2023-05-07T12:59:33;5.60;;;3.17;;
75435;SDS011;64014;53.432;14.534;2023-05-07T13:01:59;10.23;;;6.55;;
75435;SDS011;64014;53.432;14.534;2023-05-07T13:04:25;7.32;;;4.57;;
75435;SDS011;64014;53.432;14.534;2023-05-07T13:06:52;4.65;;;3.08;;
75435;SDS011;64014;53.432;14.534;2023-05-07T13:09:18;6.47;;;3.22;;
75435;SDS011;64014;53.432;14.534;2023-05-07T13:11:44;4.05;;;1.63;;
75435;SDS011;64014;53.432;14.534;2023-05-07T13:14:10;4.65;;;2.25;;
75435;SDS011;64014;53.432;14.534;2023-05-07T13:16:36;4.18;;;2.58;;
75435;SDS011;64014;53.432;14.534;2023-05-07T13:19:03;4.53;;;2.83;;
75435;SDS011;64014;53.432;14.534;2023-05-07T13:21:29;4.78;;;2.97;;
75435;SDS011;64014;53.432;14.534;2023-05-07T13:23:58;4.72;;;3.35;;
75435;SDS011;64014;53.432;14.534;2023-05-07T13:26:29;5.13;;;1.85;;
75435;SDS011;64014;53.432;14.534;2023-05-07T13:28:56;3.63;;;1.48;;
75435;SDS011;64014;53.432;14.534;2023-05-07T13:31:22;5.93;;;4.78;;
75435;SDS011;64014;53.432;14.534;2023-05-07T13:33:48;5.70;;;3.05;;
75435;SDS011;64014;53.432;14.534;2023-05-07T13:36:15;3.70;;;2.28;;
75435;SDS011;64014;53.432;14.534;2023-05-07T13:38:41;4.20;;;1.45;;
75435;SDS011;64014;53.432;14.534;2023-05-07T13:41:07;4.25;;;2.28;;
75435;SDS011;64014;53.432;14.534;2023-05-07T13:43:34;4.80;;;1.90;;
75435;SDS011;64014;53.432;14.534;2023-05-07T13:46:00;3.67;;;2.13;;
75435;SDS011;64014;53.432;14.534;2023-05-07T13:48:26;4.15;;;2.10;;
75435;SDS011;64014;53.432;14.534;2023-05-07T13:50:53;3.92;;;1.48;;
75435;SDS011;64014;53.432;14.534;2023-05-07T13:53:19;5.65;;;1.70;;
75435;SDS011;64014;53.432;14.534;2023-05-07T13:55:46;4.07;;;2.45;;
75435;SDS011;64014;53.432;14.534;2023-05-07T13:58:12;5.47;;;2.20;;
75435;SDS011;64014;53.432;14.534;2023-05-07T14:00:38;6.90;;;1.85;;
75435;SDS011;64014;53.432;14.534;2023-05-07T14:03:04;5.88;;;1.77;;
75435;SDS011;64014;53.432;14.534;2023-05-07T14:05:31;3.45;;;2.15;;
75435;SDS011;64014;53.432;14.534;2023-05-07T14:07:57;5.75;;;2.03;;
75435;SDS011;64014;53.432;14.534;2023-05-07T14:10:23;3.90;;;1.95;;
75435;SDS011;64014;53.432;14.534;2023-05-07T14:12:50;5.05;;;1.38;;
75435;SDS011;64014;53.432;14.534;2023-05-07T14:15:17;2.95;;;1.67;;
75435;SDS011;64014;53.432;14.534;2023-05-07T14:17:43;3.60;;;2.13;;
75435;SDS011;64014;53.432;14.534;2023-05-07T14:20:10;3.92;;;1.83;;
75435;SDS011;64014;53.432;14.534;2023-05-07T14:22:37;4.57;;;2.05;;
75435;SDS011;64014;53.432;14.534;2023-05-07T14:25:03;3.67;;;1.98;;
75435;SDS011;64014;53.432;14.534;2023-05-07T14:27:29;3.53;;;2.30;;
75435;SDS011;64014;53.432;14.534;2023-05-07T14:29:55;4.35;;;2.38;;
75435;SDS011;64014;53.432;14.534;2023-05-07T14:32:22;4.95;;;1.95;;
75435;SDS011;64014;53.432;14.534;2023-05-07T14:34:48;4.82;;;2.08;;
75435;SDS011;64014;53.432;14.534;2023-05-07T14:37:15;4.75;;;2.13;;
75435;SDS011;64014;53.432;14.534;2023-05-07T14:39:41;6.25;;;3.33;;
75435;SDS011;64014;53.432;14.534;2023-05-07T14:42:07;3.60;;;1.27;;
75435;SDS011;64014;53.432;14.534;2023-05-07T14:44:34;4.55;;;2.05;;
75435;SDS011;64014;53.432;14.534;2023-05-07T14:47:01;5.57;;;2.20;;
75435;SDS011;64014;53.432;14.534;2023-05-07T14:49:27;3.65;;;1.70;;
75435;SDS011;64014;53.432;14.534;2023-05-07T14:51:53;4.50;;;2.55;;
75435;SDS011;64014;53.432;14.534;2023-05-07T14:54:21;3.88;;;2.00;;
75435;SDS011;64014;53.432;14.534;2023-05-07T14:56:47;3.22;;;1.60;;